sensor_id;sensor_type;location;lat;lon;timestamp;pressure;altitude;pressure_sealevel;temperature;humidity
85812;BME280;76886;52.146;20.718;2024-03-25T00:00:30;99130;;;5.3;71.6
85812;BME280;76886;52.146;20.718;2024-03-25T00:01:30;99120;;;5.4;70.9
85812;BME280;76886;52.146;20.718;2024-03-25T00:02:30;99120;;;5.4;71.5
85812;BME280;76886;52.146;20.718;2024-03-25T00:03:30;99120;;;5.5;71.0
85812;BME280;76886;52.146;20.718;2024-03-25T00:04:30;99120;;;5.5;70.5
85812;BME280;76886;52.146;20.718;2024-03-25T00:05:30;99130;;;5.6;69.9
85812;BME280;76886;52.146;20.718;2024-03-25T00:06:30;99120;;;5.5;70.8
85812;BME280;76886;52.146;20.718;2024-03-25T00:07:30;99120;;;5.6;70.2
85812;BME280;76886;52.146;20.718;2024-03-25T00:08:30;99120;;;5.6;70.6
85812;BME280;76886;52.146;20.718;2024-03-25T00:09:30;99120;;;5.6;70.4
85812;BME280;76886;52.146;20.718;2024-03-25T00:10:30;99120;;;5.8;69.6
85812;BME280;76886;52.146;20.718;2024-03-25T00:11:30;99120;;;5.6;70.4
85812;BME280;76886;52.146;20.718;2024-03-25T00:12:30;99120;;;5.7;70.2
85812;BME280;76886;52.146;20.718;2024-03-25T00:13:30;99120;;;5.7;69.9
85812;BME280;76886;52.146;20.718;2024-03-25T00:14:30;99120;;;5.7;70.1
85812;BME280;76886;52.146;20.718;2024-03-25T00:15:30;99120;;;5.8;69.0
85812;BME280;76886;52.146;20.718;2024-03-25T00:16:30;99110;;;5.9;68.3
85812;BME280;76886;52.146;20.718;2024-03-25T00:17:30;99120;;;5.8;68.7
85812;BME280;76886;52.146;20.718;2024-03-25T00:18:30;99120;;;5.8;68.7
85812;BME280;76886;52.146;20.718;2024-03-25T00:19:30;99120;;;5.8;69.6
85812;BME280;76886;52.146;20.718;2024-03-25T00:20:30;99110;;;5.9;69.3
85812;BME280;76886;52.146;20.718;2024-03-25T00:21:30;99120;;;5.7;69.4
85812;BME280;76886;52.146;20.718;2024-03-25T00:22:30;99110;;;5.7;69.4
85812;BME280;76886;52.146;20.718;2024-03-25T00:23:30;99110;;;5.8;69.9
85812;BME280;76886;52.146;20.718;2024-03-25T00:24:30;99110;;;5.8;69.0
85812;BME280;76886;52.146;20.718;2024-03-25T00:25:30;99110;;;5.8;70.1
85812;BME280;76886;52.146;20.718;2024-03-25T00:26:30;99110;;;5.9;69.3
85812;BME280;76886;52.146;20.718;2024-03-25T00:27:30;99110;;;5.9;69.8
85812;BME280;76886;52.146;20.718;2024-03-25T00:28:30;99110;;;5.7;70.3
85812;BME280;76886;52.146;20.718;2024-03-25T00:29:30;99110;;;5.7;70.5
85812;BME280;76886;52.146;20.718;2024-03-25T00:30:30;99110;;;5.7;70.7
85812;BME280;76886;52.146;20.718;2024-03-25T00:31:30;99110;;;5.8;70.6
85812;BME280;76886;52.146;20.718;2024-03-25T00:32:30;99110;;;5.7;70.3
85812;BME280;76886;52.146;20.718;2024-03-25T00:33:30;99110;;;5.8;70.1
85812;BME280;76886;52.146;20.718;2024-03-25T00:34:30;99110;;;5.8;70.1
85812;BME280;76886;52.146;20.718;2024-03-25T00:35:30;99110;;;5.6;70.6
85812;BME280;76886;52.146;20.718;2024-03-25T00:36:30;99110;;;5.8;70.3
85812;BME280;76886;52.146;20.718;2024-03-25T00:37:30;99110;;;5.8;70.3
85812;BME280;76886;52.146;20.718;2024-03-25T00:38:30;99110;;;5.6;70.9
85812;BME280;76886;52.146;20.718;2024-03-25T00:39:30;99110;;;5.6;70.5
85812;BME280;76886;52.146;20.718;2024-03-25T00:40:30;99110;;;5.6;71.1
85812;BME280;76886;52.146;20.718;2024-03-25T00:41:30;99110;;;5.8;70.7
85812;BME280;76886;52.146;20.718;2024-03-25T00:42:30;99100;;;5.8;69.6
85812;BME280;76886;52.146;20.718;2024-03-25T00:43:30;99100;;;6.0;68.9
85812;BME280;76886;52.146;20.718;2024-03-25T00:44:30;99100;;;5.8;69.9
85812;BME280;76886;52.146;20.718;2024-03-25T00:45:30;99100;;;5.9;70.3
85812;BME280;76886;52.146;20.718;2024-03-25T00:46:30;99100;;;5.9;69.8
85812;BME280;76886;52.146;20.718;2024-03-25T00:47:30;99100;;;5.9;70.6
85812;BME280;76886;52.146;20.718;2024-03-25T00:48:30;99100;;;6.0;69.9
85812;BME280;76886;52.146;20.718;2024-03-25T00:49:30;99100;;;6.0;69.5
85812;BME280;76886;52.146;20.718;2024-03-25T00:50:30;99100;;;6.0;69.8
85812;BME280;76886;52.146;20.718;2024-03-25T00:51:30;99100;;;6.0;69.1
85812;BME280;76886;52.146;20.718;2024-03-25T00:52:30;99090;;;6.0;69.7
85812;BME280;76886;52.146;20.718;2024-03-25T00:53:30;99100;;;6.1;69.1
85812;BME280;76886;52.146;20.718;2024-03-25T00:54:30;99090;;;5.9;68.7
85812;BME280;76886;52.146;20.718;2024-03-25T00:55:30;99100;;;6.1;68.6
85812;BME280;76886;52.146;20.718;2024-03-25T00:56:30;99100;;;6.0;69.2
85812;BME280;76886;52.146;20.718;2024-03-25T00:57:30;99090;;;6.1;69.1
85812;BME280;76886;52.146;20.718;2024-03-25T00:58:30;99090;;;6.1;69.2
85812;BME280;76886;52.146;20.718;2024-03-25T00:59:30;99090;;;6.1;68.7
85812;BME280;76886;52.146;20.718;2024-03-25T01:00:30;99090;;;6.1;68.9
85812;BME280;76886;52.146;20.718;2024-03-25T01:01:31;99090;;;6.1;68.9
85812;BME280;76886;52.146;20.718;2024-03-25T01:02:30;99090;;;6.2;68.4
85812;BME280;76886;52.146;20.718;2024-03-25T01:03:30;99090;;;6.1;68.8
85812;BME280;76886;52.146;20.718;2024-03-25T01:04:30;99080;;;6.2;68.7
85812;BME280;76886;52.146;20.718;2024-03-25T01:05:30;99090;;;6.1;69.4
85812;BME280;76886;52.146;20.718;2024-03-25T01:06:30;99090;;;6.2;68.8
85812;BME280;76886;52.146;20.718;2024-03-25T01:07:30;99090;;;6.2;68.3
85812;BME280;76886;52.146;20.718;2024-03-25T01:08:30;99090;;;6.2;68.8
85812;BME280;76886;52.146;20.718;2024-03-25T01:09:30;99090;;;6.3;68.5
85812;BME280;76886;52.146;20.718;2024-03-25T01:10:30;99090;;;6.2;68.9
85812;BME280;76886;52.146;20.718;2024-03-25T01:11:30;99090;;;6.3;69.0
85812;BME280;76886;52.146;20.718;2024-03-25T01:12:30;99090;;;6.1;69.2
85812;BME280;76886;52.146;20.718;2024-03-25T01:13:30;99080;;;6.2;68.5
85812;BME280;76886;52.146;20.718;2024-03-25T01:14:30;99080;;;6.2;68.3
85812;BME280;76886;52.146;20.718;2024-03-25T01:15:30;99080;;;6.3;68.9
85812;BME280;76886;52.146;20.718;2024-03-25T01:16:30;99080;;;6.0;69.3
85812;BME280;76886;52.146;20.718;2024-03-25T01:17:30;99080;;;5.9;69.4
85812;BME280;76886;52.146;20.718;2024-03-25T01:18:30;99080;;;5.9;69.7
85812;BME280;76886;52.146;20.718;2024-03-25T01:19:30;99080;;;5.9;70.2
85812;BME280;76886;52.146;20.718;2024-03-25T01:20:30;99080;;;5.9;70.1
85812;BME280;76886;52.146;20.718;2024-03-25T01:21:30;99080;;;5.9;70.0
85812;BME280;76886;52.146;20.718;2024-03-25T01:22:30;99080;;;6.0;69.8
85812;BME280;76886;52.146;20.718;2024-03-25T01:23:30;99080;;;6.0;69.4
85812;BME280;76886;52.146;20.718;2024-03-25T01:24:30;99080;;;6.2;68.8
85812;BME280;76886;52.146;20.718;2024-03-25T01:25:30;99080;;;6.2;68.3
85812;BME280;76886;52.146;20.718;2024-03-25T01:26:30;99080;;;6.3;68.3
85812;BME280;76886;52.146;20.718;2024-03-25T01:27:30;99080;;;6.3;68.2
85812;BME280;76886;52.146;20.718;2024-03-25T01:28:30;99080;;;6.3;68.0
85812;BME280;76886;52.146;20.718;2024-03-25T01:29:30;99080;;;6.3;67.8
85812;BME280;76886;52.146;20.718;2024-03-25T01:30:30;99080;;;6.3;67.8
85812;BME280;76886;52.146;20.718;2024-03-25T01:31:30;99080;;;6.2;68.2
85812;BME280;76886;52.146;20.718;2024-03-25T01:32:30;99080;;;6.2;68.5
85812;BME280;76886;52.146;20.718;2024-03-25T01:33:30;99080;;;6.1;68.4
85812;BME280;76886;52.146;20.718;2024-03-25T01:34:30;99080;;;6.1;68.6
85812;BME280;76886;52.146;20.718;2024-03-25T01:35:30;99080;;;5.7;69.8
85812;BME280;76886;52.146;20.718;2024-03-25T01:36:30;99080;;;5.6;69.5
85812;BME280;76886;52.146;20.718;2024-03-25T01:37:30;99090;;;5.4;71.2
85812;BME280;76886;52.146;20.718;2024-03-25T01:38:30;99080;;;5.2;71.0
85812;BME280;76886;52.146;20.718;2024-03-25T01:39:30;99080;;;5.2;71.8
85812;BME280;76886;52.146;20.718;2024-03-25T01:40:30;99090;;;5.4;71.5
85812;BME280;76886;52.146;20.718;2024-03-25T01:41:30;99080;;;5.6;70.9
85812;BME280;76886;52.146;20.718;2024-03-25T01:42:30;99080;;;5.6;70.3
85812;BME280;76886;52.146;20.718;2024-03-25T01:43:30;99080;;;5.7;70.2
85812;BME280;76886;52.146;20.718;2024-03-25T01:44:30;99080;;;5.6;69.1
85812;BME280;76886;52.146;20.718;2024-03-25T01:45:30;99080;;;5.7;69.7
85812;BME280;76886;52.146;20.718;2024-03-25T01:46:30;99080;;;5.5;69.6
85812;BME280;76886;52.146;20.718;2024-03-25T01:47:30;99080;;;5.5;70.6
85812;BME280;76886;52.146;20.718;2024-03-25T01:48:30;99080;;;5.7;70.2
85812;BME280;76886;52.146;20.718;2024-03-25T01:49:30;99080;;;5.7;69.9
85812;BME280;76886;52.146;20.718;2024-03-25T01:50:30;99080;;;5.8;69.3
85812;BME280;76886;52.146;20.718;2024-03-25T01:51:30;99080;;;5.9;68.4
85812;BME280;76886;52.146;20.718;2024-03-25T01:52:30;99080;;;6.0;67.3
85812;BME280;76886;52.146;20.718;2024-03-25T01:53:30;99070;;;6.1;66.7
85812;BME280;76886;52.146;20.718;2024-03-25T01:54:30;99070;;;6.2;66.6
85812;BME280;76886;52.146;20.718;2024-03-25T01:55:30;99070;;;6.2;66.4
85812;BME280;76886;52.146;20.718;2024-03-25T01:56:31;99070;;;6.2;66.4
85812;BME280;76886;52.146;20.718;2024-03-25T01:57:30;99070;;;6.3;66.0
85812;BME280;76886;52.146;20.718;2024-03-25T01:58:30;99070;;;6.2;65.9
85812;BME280;76886;52.146;20.718;2024-03-25T01:59:30;99070;;;6.3;65.6
85812;BME280;76886;52.146;20.718;2024-03-25T02:00:30;99070;;;6.3;65.6
85812;BME280;76886;52.146;20.718;2024-03-25T02:01:30;99060;;;6.3;66.1
85812;BME280;76886;52.146;20.718;2024-03-25T02:02:30;99070;;;6.2;65.9
85812;BME280;76886;52.146;20.718;2024-03-25T02:03:30;99070;;;6.2;65.8
85812;BME280;76886;52.146;20.718;2024-03-25T02:04:30;99060;;;6.3;65.9
85812;BME280;76886;52.146;20.718;2024-03-25T02:05:30;99070;;;6.3;65.4
85812;BME280;76886;52.146;20.718;2024-03-25T02:06:30;99060;;;6.3;65.1
85812;BME280;76886;52.146;20.718;2024-03-25T02:07:30;99060;;;6.3;65.1
85812;BME280;76886;52.146;20.718;2024-03-25T02:08:30;99070;;;6.2;65.3
85812;BME280;76886;52.146;20.718;2024-03-25T02:09:30;99060;;;6.1;65.3
85812;BME280;76886;52.146;20.718;2024-03-25T02:10:30;99060;;;6.1;66.1
85812;BME280;76886;52.146;20.718;2024-03-25T02:11:30;99060;;;6.0;66.3
85812;BME280;76886;52.146;20.718;2024-03-25T02:12:30;99060;;;6.1;65.8
85812;BME280;76886;52.146;20.718;2024-03-25T02:13:30;99060;;;6.1;65.5
85812;BME280;76886;52.146;20.718;2024-03-25T02:14:30;99060;;;6.1;65.8
85812;BME280;76886;52.146;20.718;2024-03-25T02:15:30;99060;;;6.1;65.9
85812;BME280;76886;52.146;20.718;2024-03-25T02:16:30;99060;;;6.1;65.5
85812;BME280;76886;52.146;20.718;2024-03-25T02:17:30;99060;;;6.1;65.4
85812;BME280;76886;52.146;20.718;2024-03-25T02:18:30;99060;;;6.1;65.3
85812;BME280;76886;52.146;20.718;2024-03-25T02:19:30;99060;;;6.0;65.6
85812;BME280;76886;52.146;20.718;2024-03-25T02:20:30;99060;;;6.0;65.7
85812;BME280;76886;52.146;20.718;2024-03-25T02:21:30;99060;;;6.1;65.7
85812;BME280;76886;52.146;20.718;2024-03-25T02:22:30;99060;;;6.1;65.8
85812;BME280;76886;52.146;20.718;2024-03-25T02:23:30;99060;;;6.1;65.9
85812;BME280;76886;52.146;20.718;2024-03-25T02:24:30;99060;;;6.0;66.2
85812;BME280;76886;52.146;20.718;2024-03-25T02:25:31;99060;;;6.0;66.2
85812;BME280;76886;52.146;20.718;2024-03-25T02:26:30;99070;;;6.1;66.2
85812;BME280;76886;52.146;20.718;2024-03-25T02:27:30;99070;;;6.1;66.2
85812;BME280;76886;52.146;20.718;2024-03-25T02:28:30;99070;;;5.9;66.9
85812;BME280;76886;52.146;20.718;2024-03-25T02:29:37;99060;;;5.7;67.5
85812;BME280;76886;52.146;20.718;2024-03-25T02:30:30;99070;;;5.4;68.8
85812;BME280;76886;52.146;20.718;2024-03-25T02:31:30;99070;;;5.2;69.9
85812;BME280;76886;52.146;20.718;2024-03-25T02:32:30;99070;;;5.1;70.3
85812;BME280;76886;52.146;20.718;2024-03-25T02:33:30;99070;;;5.3;70.0
85812;BME280;76886;52.146;20.718;2024-03-25T02:34:30;99070;;;5.4;69.4
85812;BME280;76886;52.146;20.718;2024-03-25T02:35:30;99070;;;5.5;69.3
85812;BME280;76886;52.146;20.718;2024-03-25T02:36:30;99070;;;5.6;68.7
85812;BME280;76886;52.146;20.718;2024-03-25T02:37:30;99070;;;5.7;68.2
85812;BME280;76886;52.146;20.718;2024-03-25T02:38:30;99070;;;5.8;67.9
85812;BME280;76886;52.146;20.718;2024-03-25T02:39:31;99070;;;5.9;67.5
85812;BME280;76886;52.146;20.718;2024-03-25T02:40:30;99070;;;5.9;67.5
85812;BME280;76886;52.146;20.718;2024-03-25T02:41:30;99070;;;5.9;67.3
85812;BME280;76886;52.146;20.718;2024-03-25T02:42:30;99070;;;6.0;67.0
85812;BME280;76886;52.146;20.718;2024-03-25T02:43:30;99070;;;6.0;67.5
85812;BME280;76886;52.146;20.718;2024-03-25T02:44:31;99070;;;6.0;67.3
85812;BME280;76886;52.146;20.718;2024-03-25T02:45:30;99080;;;6.0;66.6
85812;BME280;76886;52.146;20.718;2024-03-25T02:46:30;99080;;;6.1;66.4
85812;BME280;76886;52.146;20.718;2024-03-25T02:47:30;99080;;;6.1;66.1
85812;BME280;76886;52.146;20.718;2024-03-25T02:48:30;99080;;;6.1;65.9
85812;BME280;76886;52.146;20.718;2024-03-25T02:49:30;99080;;;6.1;65.7
85812;BME280;76886;52.146;20.718;2024-03-25T02:50:30;99080;;;6.1;65.5
85812;BME280;76886;52.146;20.718;2024-03-25T02:51:30;99080;;;6.1;65.3
85812;BME280;76886;52.146;20.718;2024-03-25T02:52:30;99080;;;6.1;65.2
85812;BME280;76886;52.146;20.718;2024-03-25T02:53:30;99080;;;6.1;65.2
85812;BME280;76886;52.146;20.718;2024-03-25T02:54:30;99080;;;6.1;65.1
85812;BME280;76886;52.146;20.718;2024-03-25T02:55:30;99080;;;6.1;65.1
85812;BME280;76886;52.146;20.718;2024-03-25T02:56:30;99080;;;6.0;65.0
85812;BME280;76886;52.146;20.718;2024-03-25T02:57:30;99090;;;6.0;65.1
85812;BME280;76886;52.146;20.718;2024-03-25T02:58:30;99080;;;6.0;65.1
85812;BME280;76886;52.146;20.718;2024-03-25T02:59:30;99080;;;6.0;65.3
85812;BME280;76886;52.146;20.718;2024-03-25T03:00:30;99080;;;6.0;65.3
85812;BME280;76886;52.146;20.718;2024-03-25T03:01:30;99080;;;6.0;65.5
85812;BME280;76886;52.146;20.718;2024-03-25T03:02:30;99080;;;5.9;65.8
85812;BME280;76886;52.146;20.718;2024-03-25T03:03:30;99080;;;5.9;66.0
85812;BME280;76886;52.146;20.718;2024-03-25T03:04:30;99080;;;5.9;65.9
85812;BME280;76886;52.146;20.718;2024-03-25T03:05:30;99080;;;5.9;66.0
85812;BME280;76886;52.146;20.718;2024-03-25T03:06:30;99080;;;5.9;65.8
85812;BME280;76886;52.146;20.718;2024-03-25T03:07:30;99080;;;5.9;66.1
85812;BME280;76886;52.146;20.718;2024-03-25T03:08:30;99080;;;5.8;66.5
85812;BME280;76886;52.146;20.718;2024-03-25T03:09:30;99080;;;5.9;66.7
85812;BME280;76886;52.146;20.718;2024-03-25T03:10:30;99080;;;5.9;66.4
85812;BME280;76886;52.146;20.718;2024-03-25T03:11:30;99080;;;5.9;66.3
85812;BME280;76886;52.146;20.718;2024-03-25T03:12:30;99080;;;5.9;66.2
85812;BME280;76886;52.146;20.718;2024-03-25T03:13:30;99080;;;5.8;66.7
85812;BME280;76886;52.146;20.718;2024-03-25T03:14:30;99080;;;5.7;67.3
85812;BME280;76886;52.146;20.718;2024-03-25T03:15:30;99090;;;5.7;67.6
85812;BME280;76886;52.146;20.718;2024-03-25T03:16:30;99090;;;5.7;68.1
85812;BME280;76886;52.146;20.718;2024-03-25T03:17:30;99090;;;5.7;68.0
85812;BME280;76886;52.146;20.718;2024-03-25T03:18:30;99090;;;5.8;67.7
85812;BME280;76886;52.146;20.718;2024-03-25T03:19:30;99090;;;5.8;67.3
85812;BME280;76886;52.146;20.718;2024-03-25T03:20:30;99090;;;5.7;68.2
85812;BME280;76886;52.146;20.718;2024-03-25T03:21:30;99090;;;5.8;67.9
85812;BME280;76886;52.146;20.718;2024-03-25T03:22:30;99090;;;5.8;67.7
85812;BME280;76886;52.146;20.718;2024-03-25T03:23:30;99090;;;5.7;67.8
85812;BME280;76886;52.146;20.718;2024-03-25T03:24:30;99090;;;5.8;67.3
85812;BME280;76886;52.146;20.718;2024-03-25T03:25:30;99090;;;5.8;67.0
85812;BME280;76886;52.146;20.718;2024-03-25T03:26:30;99090;;;5.8;67.1
85812;BME280;76886;52.146;20.718;2024-03-25T03:27:30;99090;;;5.8;67.0
85812;BME280;76886;52.146;20.718;2024-03-25T03:28:30;99090;;;5.9;66.9
85812;BME280;76886;52.146;20.718;2024-03-25T03:29:30;99100;;;5.9;66.7
85812;BME280;76886;52.146;20.718;2024-03-25T03:30:30;99100;;;5.8;67.1
85812;BME280;76886;52.146;20.718;2024-03-25T03:31:30;99100;;;5.8;67.4
85812;BME280;76886;52.146;20.718;2024-03-25T03:32:30;99100;;;5.8;67.6
85812;BME280;76886;52.146;20.718;2024-03-25T03:33:30;99110;;;5.8;67.8
85812;BME280;76886;52.146;20.718;2024-03-25T03:34:30;99100;;;5.8;67.8
85812;BME280;76886;52.146;20.718;2024-03-25T03:35:32;99100;;;5.8;67.6
85812;BME280;76886;52.146;20.718;2024-03-25T03:36:30;99100;;;5.8;67.2
85812;BME280;76886;52.146;20.718;2024-03-25T03:37:30;99100;;;5.9;67.0
85812;BME280;76886;52.146;20.718;2024-03-25T03:38:30;99100;;;5.9;66.8
85812;BME280;76886;52.146;20.718;2024-03-25T03:39:30;99100;;;5.8;66.9
85812;BME280;76886;52.146;20.718;2024-03-25T03:40:31;99100;;;5.8;67.2
85812;BME280;76886;52.146;20.718;2024-03-25T03:41:30;99100;;;5.8;67.3
85812;BME280;76886;52.146;20.718;2024-03-25T03:42:30;99100;;;5.8;67.4
85812;BME280;76886;52.146;20.718;2024-03-25T03:43:30;99110;;;5.8;67.1
85812;BME280;76886;52.146;20.718;2024-03-25T03:44:30;99110;;;5.8;67.3
85812;BME280;76886;52.146;20.718;2024-03-25T03:45:32;99110;;;5.8;67.4
85812;BME280;76886;52.146;20.718;2024-03-25T03:46:30;99110;;;5.8;67.4
85812;BME280;76886;52.146;20.718;2024-03-25T03:47:30;99110;;;5.8;67.8
85812;BME280;76886;52.146;20.718;2024-03-25T03:48:30;99120;;;5.8;67.6
85812;BME280;76886;52.146;20.718;2024-03-25T03:49:30;99120;;;5.7;67.6
85812;BME280;76886;52.146;20.718;2024-03-25T03:50:30;99120;;;5.7;67.5
85812;BME280;76886;52.146;20.718;2024-03-25T03:51:30;99120;;;5.8;67.2
85812;BME280;76886;52.146;20.718;2024-03-25T03:52:30;99120;;;5.8;67.2
85812;BME280;76886;52.146;20.718;2024-03-25T03:53:30;99120;;;5.8;67.1
85812;BME280;76886;52.146;20.718;2024-03-25T03:54:30;99120;;;5.8;67.1
85812;BME280;76886;52.146;20.718;2024-03-25T03:55:30;99120;;;5.8;66.9
85812;BME280;76886;52.146;20.718;2024-03-25T03:56:30;99120;;;5.8;66.9
85812;BME280;76886;52.146;20.718;2024-03-25T03:57:31;99120;;;5.7;67.4
85812;BME280;76886;52.146;20.718;2024-03-25T03:58:30;99120;;;5.7;67.7
85812;BME280;76886;52.146;20.718;2024-03-25T03:59:30;99110;;;5.6;67.7
85812;BME280;76886;52.146;20.718;2024-03-25T04:00:33;99110;;;5.7;67.8
85812;BME280;76886;52.146;20.718;2024-03-25T04:01:30;99120;;;5.7;67.8
85812;BME280;76886;52.146;20.718;2024-03-25T04:02:30;99110;;;5.7;68.2
85812;BME280;76886;52.146;20.718;2024-03-25T04:03:30;99110;;;5.6;68.6
85812;BME280;76886;52.146;20.718;2024-03-25T04:04:30;99110;;;5.6;68.6
85812;BME280;76886;52.146;20.718;2024-03-25T04:05:30;99110;;;5.6;68.2
85812;BME280;76886;52.146;20.718;2024-03-25T04:06:30;99110;;;5.6;68.2
85812;BME280;76886;52.146;20.718;2024-03-25T04:07:31;99110;;;5.7;68.0
85812;BME280;76886;52.146;20.718;2024-03-25T04:08:30;99110;;;5.7;67.8
85812;BME280;76886;52.146;20.718;2024-03-25T04:09:30;99110;;;5.7;67.8
85812;BME280;76886;52.146;20.718;2024-03-25T04:10:30;99110;;;5.7;67.8
85812;BME280;76886;52.146;20.718;2024-03-25T04:11:30;99110;;;5.7;67.6
85812;BME280;76886;52.146;20.718;2024-03-25T04:12:30;99110;;;5.7;67.9
85812;BME280;76886;52.146;20.718;2024-03-25T04:13:30;99110;;;5.6;68.4
85812;BME280;76886;52.146;20.718;2024-03-25T04:14:30;99110;;;5.6;68.6
85812;BME280;76886;52.146;20.718;2024-03-25T04:15:34;99110;;;5.6;68.8
85812;BME280;76886;52.146;20.718;2024-03-25T04:16:30;99110;;;5.7;68.7
85812;BME280;76886;52.146;20.718;2024-03-25T04:17:30;99110;;;5.6;68.2
85812;BME280;76886;52.146;20.718;2024-03-25T04:18:30;99110;;;5.6;68.4
85812;BME280;76886;52.146;20.718;2024-03-25T04:19:30;99110;;;5.6;68.4
85812;BME280;76886;52.146;20.718;2024-03-25T04:20:35;99110;;;5.6;68.1
85812;BME280;76886;52.146;20.718;2024-03-25T04:21:30;99110;;;5.6;68.3
85812;BME280;76886;52.146;20.718;2024-03-25T04:22:30;99110;;;5.6;68.4
85812;BME280;76886;52.146;20.718;2024-03-25T04:23:30;99120;;;5.6;68.9
85812;BME280;76886;52.146;20.718;2024-03-25T04:24:30;99120;;;5.6;68.9
85812;BME280;76886;52.146;20.718;2024-03-25T04:25:30;99120;;;5.6;68.4
85812;BME280;76886;52.146;20.718;2024-03-25T04:26:30;99120;;;5.7;68.0
85812;BME280;76886;52.146;20.718;2024-03-25T04:27:30;99120;;;5.7;67.7
85812;BME280;76886;52.146;20.718;2024-03-25T04:28:30;99120;;;5.7;67.6
85812;BME280;76886;52.146;20.718;2024-03-25T04:29:30;99120;;;5.7;67.9
85812;BME280;76886;52.146;20.718;2024-03-25T04:30:30;99120;;;5.8;67.9
85812;BME280;76886;52.146;20.718;2024-03-25T04:31:30;99120;;;5.8;67.7
85812;BME280;76886;52.146;20.718;2024-03-25T04:32:30;99120;;;5.7;67.3
85812;BME280;76886;52.146;20.718;2024-03-25T04:33:30;99120;;;5.8;67.5
85812;BME280;76886;52.146;20.718;2024-03-25T04:34:30;99120;;;5.8;67.4
85812;BME280;76886;52.146;20.718;2024-03-25T04:35:30;99130;;;5.8;67.4
85812;BME280;76886;52.146;20.718;2024-03-25T04:36:30;99130;;;5.8;67.3
85812;BME280;76886;52.146;20.718;2024-03-25T04:37:30;99130;;;5.8;67.2
85812;BME280;76886;52.146;20.718;2024-03-25T04:38:30;99130;;;5.9;67.2
85812;BME280;76886;52.146;20.718;2024-03-25T04:39:30;99120;;;5.9;67.0
85812;BME280;76886;52.146;20.718;2024-03-25T04:40:30;99120;;;5.8;67.3
85812;BME280;76886;52.146;20.718;2024-03-25T04:41:30;99120;;;5.9;67.1
85812;BME280;76886;52.146;20.718;2024-03-25T04:42:30;99120;;;5.9;67.2
85812;BME280;76886;52.146;20.718;2024-03-25T04:43:30;99120;;;5.9;66.9
85812;BME280;76886;52.146;20.718;2024-03-25T04:44:30;99120;;;5.8;67.5
85812;BME280;76886;52.146;20.718;2024-03-25T04:45:30;99130;;;5.8;67.5
85812;BME280;76886;52.146;20.718;2024-03-25T04:46:30;99120;;;5.8;67.3
85812;BME280;76886;52.146;20.718;2024-03-25T04:47:30;99130;;;5.8;67.4
85812;BME280;76886;52.146;20.718;2024-03-25T04:48:30;99130;;;5.8;67.9
85812;BME280;76886;52.146;20.718;2024-03-25T04:49:30;99130;;;5.8;67.9
85812;BME280;76886;52.146;20.718;2024-03-25T04:50:30;99130;;;5.8;67.5
85812;BME280;76886;52.146;20.718;2024-03-25T04:51:30;99130;;;5.8;67.6
85812;BME280;76886;52.146;20.718;2024-03-25T04:52:30;99130;;;5.9;67.8
85812;BME280;76886;52.146;20.718;2024-03-25T04:53:30;99130;;;5.9;67.6
85812;BME280;76886;52.146;20.718;2024-03-25T04:54:30;99130;;;5.9;68.0
85812;BME280;76886;52.146;20.718;2024-03-25T04:55:30;99130;;;5.7;68.5
85812;BME280;76886;52.146;20.718;2024-03-25T04:56:30;99130;;;5.7;69.1
85812;BME280;76886;52.146;20.718;2024-03-25T04:57:30;99130;;;5.8;68.5
85812;BME280;76886;52.146;20.718;2024-03-25T04:58:30;99140;;;5.9;68.2
85812;BME280;76886;52.146;20.718;2024-03-25T04:59:30;99140;;;5.9;67.9
85812;BME280;76886;52.146;20.718;2024-03-25T05:00:30;99140;;;5.9;68.3
85812;BME280;76886;52.146;20.718;2024-03-25T05:01:30;99140;;;5.7;68.6
85812;BME280;76886;52.146;20.718;2024-03-25T05:02:30;99140;;;5.8;68.1
85812;BME280;76886;52.146;20.718;2024-03-25T05:03:30;99140;;;5.8;67.8
85812;BME280;76886;52.146;20.718;2024-03-25T05:04:30;99140;;;5.9;68.0
85812;BME280;76886;52.146;20.718;2024-03-25T05:05:30;99130;;;5.8;68.5
85812;BME280;76886;52.146;20.718;2024-03-25T05:06:30;99130;;;5.7;68.0
85812;BME280;76886;52.146;20.718;2024-03-25T05:07:30;99140;;;5.7;68.8
85812;BME280;76886;52.146;20.718;2024-03-25T05:08:30;99130;;;5.6;68.9
85812;BME280;76886;52.146;20.718;2024-03-25T05:09:30;99130;;;5.6;69.4
85812;BME280;76886;52.146;20.718;2024-03-25T05:10:30;99130;;;5.5;69.5
85812;BME280;76886;52.146;20.718;2024-03-25T05:11:30;99130;;;5.5;69.7
85812;BME280;76886;52.146;20.718;2024-03-25T05:12:30;99130;;;5.5;69.7
85812;BME280;76886;52.146;20.718;2024-03-25T05:13:30;99130;;;5.6;69.8
85812;BME280;76886;52.146;20.718;2024-03-25T05:14:30;99130;;;5.6;69.8
85812;BME280;76886;52.146;20.718;2024-03-25T05:15:30;99130;;;5.4;70.4
85812;BME280;76886;52.146;20.718;2024-03-25T05:16:30;99130;;;5.4;70.1
85812;BME280;76886;52.146;20.718;2024-03-25T05:17:30;99130;;;5.4;71.1
85812;BME280;76886;52.146;20.718;2024-03-25T05:18:30;99130;;;5.5;70.6
85812;BME280;76886;52.146;20.718;2024-03-25T05:19:30;99130;;;5.6;70.5
85812;BME280;76886;52.146;20.718;2024-03-25T05:20:30;99130;;;5.3;71.0
85812;BME280;76886;52.146;20.718;2024-03-25T05:21:30;99130;;;5.2;72.3
85812;BME280;76886;52.146;20.718;2024-03-25T05:22:30;99140;;;5.2;72.2
85812;BME280;76886;52.146;20.718;2024-03-25T05:23:30;99140;;;5.1;72.4
85812;BME280;76886;52.146;20.718;2024-03-25T05:24:30;99130;;;5.3;72.0
85812;BME280;76886;52.146;20.718;2024-03-25T05:25:30;99140;;;5.4;70.7
85812;BME280;76886;52.146;20.718;2024-03-25T05:26:30;99140;;;5.2;71.3
85812;BME280;76886;52.146;20.718;2024-03-25T05:27:30;99140;;;5.1;73.0
85812;BME280;76886;52.146;20.718;2024-03-25T05:28:30;99140;;;5.3;72.5
85812;BME280;76886;52.146;20.718;2024-03-25T05:29:30;99140;;;5.1;73.0
85812;BME280;76886;52.146;20.718;2024-03-25T05:30:30;99130;;;5.4;72.0
85812;BME280;76886;52.146;20.718;2024-03-25T05:31:30;99130;;;5.4;72.5
85812;BME280;76886;52.146;20.718;2024-03-25T05:32:30;99140;;;5.6;71.8
85812;BME280;76886;52.146;20.718;2024-03-25T05:33:30;99140;;;5.8;70.5
85812;BME280;76886;52.146;20.718;2024-03-25T05:34:30;99140;;;5.9;70.7
85812;BME280;76886;52.146;20.718;2024-03-25T05:35:30;99140;;;5.8;71.5
85812;BME280;76886;52.146;20.718;2024-03-25T05:36:30;99150;;;5.7;71.3
85812;BME280;76886;52.146;20.718;2024-03-25T05:37:30;99150;;;5.7;70.7
85812;BME280;76886;52.146;20.718;2024-03-25T05:38:30;99150;;;5.9;70.4
85812;BME280;76886;52.146;20.718;2024-03-25T05:39:30;99150;;;5.9;70.4
85812;BME280;76886;52.146;20.718;2024-03-25T05:40:30;99150;;;5.9;70.3